Time;durP1;ratioP1;P1;durP2;ratioP2;P2;SDS_P1;SDS_P2;PMS_P1;PMS_P2;Temp;Humidity;BMP_temperature;BMP_pressure;BME280_temperature;BME280_humidity;BME280_pressure;Samples;Min_cycle;Max_cycle;Signal;HPM_P1;HPM_P2
2022/06/17 00:00:37;;;;;;;6.70;2.10;;;29.30;35.60;;;;;;6139066;29;20043;-71
2022/06/17 00:03:38;;;;;;;7.07;2.70;;;29.20;35.80;;;;;;6133626;29;20210;-70
2022/06/17 00:07:00;;;;;;;8.23;2.50;;;29.10;35.90;;;;;;6135711;29;20051;-70
2022/06/17 00:10:02;;;;;;;10.20;2.42;;;29.00;36.00;;;;;;6117911;29;20023;-71
2022/06/17 00:13:03;;;;;;;6.80;2.40;;;29.00;36.00;;;;;;6131009;29;20035;-71
2022/06/17 00:16:10;;;;;;;18.00;3.17;;;29.00;36.10;;;;;;6132655;29;20042;-71
2022/06/17 00:19:11;;;;;;;14.23;2.72;;;29.00;36.20;;;;;;6134796;29;20038;-71
2022/06/17 00:22:12;;;;;;;14.30;2.58;;;28.90;36.10;;;;;;6116569;29;20035;-71
2022/06/17 00:25:27;;;;;;;14.02;2.90;;;28.90;36.30;;;;;;6134592;29;20046;-71
2022/06/17 00:28:29;;;;;;;6.88;2.28;;;28.90;36.40;;;;;;6196459;28;20455;-71
2022/06/17 00:31:29;;;;;;;7.53;2.58;;;28.90;36.30;;;;;;6203025;28;20018;-71
2022/06/17 00:34:30;;;;;;;5.40;2.50;;;28.90;36.30;;;;;;6199167;28;20027;-73
2022/06/17 00:37:31;;;;;;;5.35;2.50;;;28.90;36.30;;;;;;6203442;28;20026;-72
2022/06/17 00:40:34;;;;;;;5.25;2.30;;;29.00;36.40;;;;;;6203118;28;20351;-72
2022/06/17 00:43:36;;;;;;;8.35;2.92;;;29.00;36.50;;;;;;6199380;28;20018;-72
2022/06/17 00:47:07;;;;;;;7.78;3.00;;;29.00;36.70;;;;;;6182149;28;20039;-71
2022/06/17 00:50:15;;;;;;;4.05;2.83;;;29.00;37.00;;;;;;6192736;28;20030;-71
2022/06/17 00:53:42;;;;;;;7.22;2.78;;;28.90;37.20;;;;;;6202199;28;20089;-71
2022/06/17 00:56:44;;;;;;;5.28;2.85;;;28.90;37.40;;;;;;6164613;28;20538;-71
2022/06/17 01:00:11;;;;;;;6.68;3.10;;;28.90;37.70;;;;;;6204151;28;20058;-71
2022/06/17 01:03:19;;;;;;;8.13;2.75;;;28.80;38.10;;;;;;6203590;28;20026;-71
2022/06/17 01:06:22;;;;;;;4.45;2.78;;;28.80;38.30;;;;;;6185664;28;20018;-71
2022/06/17 01:12:59;;;;;;;4.90;2.80;;;28.70;38.60;;;;;;6209717;28;20014;-71
2022/06/17 01:16:01;;;;;;;4.90;2.90;;;28.60;38.70;;;;;;6183812;28;20074;-70
2022/06/17 01:19:23;;;;;;;6.35;3.72;;;28.60;38.80;;;;;;6193281;28;20023;-71
2022/06/17 01:22:56;;;;;;;11.45;3.38;;;28.50;38.70;;;;;;6199629;28;20517;-70
2022/06/17 01:25:57;;;;;;;9.20;3.05;;;28.50;39.50;;;;;;6193764;28;20030;-71
2022/06/17 01:28:58;;;;;;;10.40;3.53;;;28.50;38.80;;;;;;6203137;28;20048;-71
2022/06/17 01:32:00;;;;;;;9.07;2.70;;;28.40;38.90;;;;;;6185929;28;20026;-71
2022/06/17 01:35:01;;;;;;;13.05;2.92;;;28.40;39.00;;;;;;6199823;28;20026;-71
2022/06/17 01:38:02;;;;;;;9.02;2.63;;;28.30;39.20;;;;;;6191863;28;20034;-71
2022/06/17 01:41:04;;;;;;;6.57;2.65;;;28.30;39.30;;;;;;6181376;28;20045;-70
2022/06/17 01:44:05;;;;;;;11.73;3.13;;;28.20;39.30;;;;;;6193625;28;20038;-70
2022/06/17 01:47:11;;;;;;;5.85;2.42;;;28.20;39.20;;;;;;6180718;28;20359;-70
2022/06/17 01:50:19;;;;;;;4.03;2.40;;;28.10;39.20;;;;;;6186547;28;20014;-70
2022/06/17 01:53:27;;;;;;;6.57;2.65;;;28.00;39.20;;;;;;6189420;28;20092;-70
2022/06/17 01:56:34;;;;;;;11.93;2.75;;;28.00;39.30;;;;;;6185831;28;20151;-70
2022/06/17 01:59:51;;;;;;;6.70;2.67;;;27.90;39.40;;;;;;6184404;28;20432;-70
2022/06/17 02:03:21;;;;;;;5.00;2.60;;;27.90;39.60;;;;;;6184158;28;22013;-72
2022/06/17 02:06:40;;;;;;;7.28;2.72;;;27.80;39.60;;;;;;6133115;29;20613;-71
2022/06/17 02:09:41;;;;;;;8.02;2.92;;;27.80;39.60;;;;;;6114816;29;20059;-71
2022/06/17 02:12:43;;;;;;;7.82;2.28;;;27.70;39.60;;;;;;6126155;29;20437;-71
2022/06/17 02:15:45;;;;;;;8.40;2.78;;;27.70;39.70;;;;;;6127991;29;20051;-70
2022/06/17 02:19:11;;;;;;;8.00;2.67;;;27.60;39.80;;;;;;6111573;29;20034;-71
2022/06/17 02:22:25;;;;;;;5.38;2.65;;;27.60;40.00;;;;;;6122804;29;20027;-70
2022/06/17 02:25:44;;;;;;;10.75;2.90;;;27.60;40.10;;;;;;6126650;29;20032;-70
2022/06/17 02:28:47;;;;;;;7.55;3.08;;;27.60;40.10;;;;;;6111415;29;20058;-71
2022/06/17 02:31:48;;;;;;;6.82;3.00;;;27.50;40.20;;;;;;6127445;29;20398;-70
2022/06/17 02:35:15;;;;;;;7.30;2.63;;;27.50;40.30;;;;;;6129447;29;20082;-71
2022/06/17 02:38:19;;;;;;;6.55;2.78;;;27.40;40.40;;;;;;6128542;29;20056;-71
2022/06/17 02:41:21;;;;;;;10.45;2.80;;;27.40;40.40;;;;;;6111490;29;20078;-70
2022/06/17 02:44:28;;;;;;;7.35;3.00;;;27.40;40.40;;;;;;6177792;28;20034;-71
2022/06/17 02:47:32;;;;;;;6.50;2.75;;;27.40;40.50;;;;;;6182698;28;20113;-71
2022/06/17 02:50:33;;;;;;;5.05;2.75;;;27.40;40.60;;;;;;6182184;28;20022;-70
2022/06/17 02:53:37;;;;;;;5.75;2.53;;;27.30;40.70;;;;;;6178947;28;20061;-70
2022/06/17 02:56:42;;;;;;;4.28;2.53;;;27.30;40.90;;;;;;6181753;28;20466;-71
2022/06/17 03:00:05;;;;;;;9.02;2.80;;;27.30;40.90;;;;;;6163492;28;20056;-70
2022/06/17 03:03:11;;;;;;;5.07;2.80;;;27.30;41.00;;;;;;6180280;28;20073;-71
2022/06/17 03:06:20;;;;;;;4.38;2.53;;;27.20;41.10;;;;;;6196997;28;20356;-70
2022/06/17 03:09:27;;;;;;;5.78;2.88;;;27.20;41.20;;;;;;6197276;28;20022;-71
2022/06/17 03:12:29;;;;;;;9.73;3.08;;;27.10;41.30;;;;;;6182642;28;20014;-72
2022/06/17 03:15:31;;;;;;;4.25;2.58;;;27.10;41.30;;;;;;6183108;28;20038;-71
2022/06/17 03:18:32;;;;;;;10.57;3.20;;;27.00;41.40;;;;;;6183282;28;20038;-71
2022/06/17 03:21:34;;;;;;;10.57;3.50;;;27.00;41.50;;;;;;6173023;28;20033;-71
2022/06/17 03:24:46;;;;;;;7.28;3.30;;;27.00;41.50;;;;;;6196888;28;20026;-70
2022/06/17 03:27:50;;;;;;;11.80;2.65;;;26.90;41.50;;;;;;6163291;28;20390;-70
2022/06/17 03:31:02;;;;;;;7.28;2.60;;;26.90;41.50;;;;;;6164482;28;20324;-70
2022/06/17 03:34:10;;;;;;;6.00;2.90;;;26.90;41.50;;;;;;6181811;28;20084;-70
2022/06/17 03:37:43;;;;;;;8.55;2.88;;;26.90;41.60;;;;;;6181020;28;20117;-71
2022/06/17 03:40:50;;;;;;;4.03;2.70;;;26.80;41.70;;;;;;6195841;28;20026;-70
2022/06/17 03:44:17;;;;;;;7.95;3.28;;;26.80;41.70;;;;;;6183469;28;20041;-71
2022/06/17 03:47:24;;;;;;;8.75;3.20;;;26.80;42.60;;;;;;6184707;28;20038;-71
2022/06/17 03:50:31;;;;;;;6.25;3.15;;;26.70;42.20;;;;;;6164292;28;20038;-70
2022/06/17 03:53:37;;;;;;;7.93;3.00;;;26.70;42.40;;;;;;6163000;28;20031;-71
2022/06/17 03:56:41;;;;;;;5.75;3.20;;;26.60;42.70;;;;;;6198103;28;20018;-71
2022/06/17 03:59:46;;;;;;;11.57;2.95;;;26.60;42.80;;;;;;6180428;28;20042;-70
2022/06/17 04:02:50;;;;;;;7.97;3.25;;;26.60;42.90;;;;;;6195700;28;20022;-70
2022/06/17 04:06:10;;;;;;;4.63;3.08;;;26.50;43.00;;;;;;6183950;28;20022;-71
2022/06/17 04:09:25;;;;;;;6.35;3.10;;;26.50;43.10;;;;;;6197139;28;20022;-71
2022/06/17 04:12:28;;;;;;;5.25;3.28;;;26.50;43.20;;;;;;6184264;28;20034;-69
2022/06/17 04:16:14;;;;;;;;;;;26.50;43.20;;;;;;6198091;28;20076;-70
2022/06/17 04:19:19;;;;;;;6.50;3.22;;;26.50;43.30;;;;;;6202018;28;19916;-71
2022/06/17 04:22:30;;;;;;;6.30;3.50;;;26.50;43.20;;;;;;6181825;28;20055;-71
2022/06/17 04:25:56;;;;;;;5.70;3.47;;;26.50;43.40;;;;;;6198505;28;20073;-71
2022/06/17 04:29:03;;;;;;;12.10;3.40;;;26.50;43.50;;;;;;6178926;28;20019;-71
2022/06/17 04:32:34;;;;;;;5.60;3.38;;;26.50;43.50;;;;;;6176962;28;20026;-71
2022/06/17 04:35:36;;;;;;;9.33;3.43;;;26.50;43.70;;;;;;6171380;28;20463;-71
2022/06/17 04:39:03;;;;;;;9.55;2.95;;;26.40;43.70;;;;;;6182621;28;20103;-71
2022/06/17 04:42:24;;;;;;;6.32;3.10;;;26.40;43.80;;;;;;6180478;28;20022;-70
2022/06/17 04:45:28;;;;;;;9.98;3.33;;;26.40;43.90;;;;;;6181514;28;20045;-70
2022/06/17 04:48:35;;;;;;;7.22;3.28;;;26.40;44.00;;;;;;6195735;28;20014;-71
2022/06/17 04:51:37;;;;;;;7.38;3.50;;;26.30;44.00;;;;;;6178917;28;20027;-71
2022/06/17 04:54:43;;;;;;;5.35;3.00;;;26.30;43.90;;;;;;6178268;28;20026;-72
2022/06/17 04:58:25;;;;;;;8.77;3.78;;;26.40;43.90;;;;;;6184802;28;20113;-70
2022/06/17 05:01:35;;;;;;;9.05;3.50;;;26.50;43.90;;;;;;6179839;28;20022;-71
2022/06/17 05:04:49;;;;;;;8.25;3.92;;;26.50;44.00;;;;;;6181992;28;20486;-71
2022/06/17 05:07:53;;;;;;;6.45;3.13;;;26.50;44.30;;;;;;6202972;28;20120;-71
2022/06/17 05:11:12;;;;;;;6.10;3.50;;;26.50;44.60;;;;;;6196190;28;20022;-72
2022/06/17 05:14:29;;;;;;;6.15;3.33;;;26.60;44.90;;;;;;6194985;28;20034;-69
2022/06/17 05:17:30;;;;;;;11.52;3.60;;;26.60;44.90;;;;;;6182328;28;20057;-71
2022/06/17 05:20:31;;;;;;;14.13;3.47;;;26.70;44.80;;;;;;6188653;28;20121;-71
2022/06/17 05:23:34;;;;;;;6.22;3.90;;;26.70;44.70;;;;;;6183771;28;20042;-71
2022/06/17 05:26:36;;;;;;;5.55;3.40;;;26.70;44.70;;;;;;6179654;28;20113;-70
2022/06/17 05:29:37;;;;;;;7.30;3.30;;;26.80;44.80;;;;;;6191061;28;20029;-72
2022/06/17 05:32:46;;;;;;;9.80;3.60;;;26.80;44.70;;;;;;6184717;28;20113;-70
2022/06/17 05:35:48;;;;;;;6.97;3.67;;;26.90;44.60;;;;;;6183769;28;20019;-71
2022/06/17 05:38:50;;;;;;;11.65;4.05;;;26.90;44.40;;;;;;6182383;28;20316;-70
2022/06/17 05:41:51;;;;;;;9.48;4.10;;;26.90;44.30;;;;;;6178285;28;20045;-71
2022/06/17 05:44:52;;;;;;;9.85;3.92;;;27.00;44.20;;;;;;6190328;28;20018;-73
2022/06/17 05:48:06;;;;;;;12.25;4.35;;;27.00;44.10;;;;;;6166956;28;20034;-72
2022/06/17 05:51:27;;;;;;;20.55;6.03;;;27.10;44.00;;;;;;6126618;29;20523;-70
2022/06/17 05:54:42;;;;;;;18.23;5.65;;;27.10;43.90;;;;;;6124800;29;20086;-71
2022/06/17 05:57:45;;;;;;;15.27;4.85;;;27.20;43.80;;;;;;6111838;29;20027;-71
2022/06/17 06:00:46;;;;;;;10.13;4.57;;;27.20;43.70;;;;;;6126664;29;20031;-70
2022/06/17 06:03:47;;;;;;;8.50;3.88;;;27.30;43.70;;;;;;6122511;29;20044;-70
2022/06/17 06:06:51;;;;;;;9.18;4.55;;;27.30;43.60;;;;;;6126469;29;20496;-71
2022/06/17 06:09:52;;;;;;;10.25;4.38;;;27.40;44.30;;;;;;6129506;29;20032;-70
2022/06/17 06:13:05;;;;;;;7.75;3.97;;;27.40;44.30;;;;;;6127650;29;20105;-71
2022/06/17 06:16:15;;;;;;;10.15;4.05;;;27.50;43.80;;;;;;6131124;29;20036;-71
2022/06/17 06:19:23;;;;;;;12.20;3.90;;;27.40;43.80;;;;;;6125651;29;20047;-71
2022/06/17 06:22:24;;;;;;;13.80;4.20;;;27.50;43.80;;;;;;6130488;28;20055;-71
2022/06/17 06:25:25;;;;;;;7.55;4.32;;;27.60;43.90;;;;;;6113051;29;20039;-71
2022/06/17 06:28:30;;;;;;;8.70;3.63;;;27.60;43.70;;;;;;6152679;28;20034;-71
2022/06/17 06:31:46;;;;;;;17.35;4.43;;;27.70;43.70;;;;;;6210859;28;20076;-72
2022/06/17 06:34:56;;;;;;;9.05;3.80;;;27.80;43.60;;;;;;6185966;28;20117;-72
2022/06/17 06:38:02;;;;;;;9.77;4.00;;;27.80;43.10;;;;;;6173893;28;20078;-71
2022/06/17 06:41:04;;;;;;;9.35;3.97;;;27.80;43.10;;;;;;6181370;28;20135;-70
2022/06/17 06:44:06;;;;;;;8.05;3.60;;;27.80;43.00;;;;;;6182466;28;20460;-71
2022/06/17 06:47:25;;;;;;;12.65;3.80;;;27.80;43.10;;;;;;6199421;28;20443;-70
2022/06/17 06:50:41;;;;;;;12.07;3.80;;;27.90;43.20;;;;;;6169948;28;20038;-70
2022/06/17 06:53:42;;;;;;;6.03;3.70;;;28.00;43.10;;;;;;6196283;28;20038;-71
2022/06/17 06:56:42;;;;;;;6.18;3.28;;;28.00;42.90;;;;;;6185040;28;20352;-71
2022/06/17 06:59:45;;;;;;;7.82;3.95;;;28.10;42.70;;;;;;6189577;28;20030;-71
2022/06/17 07:02:47;;;;;;;6.40;3.55;;;28.20;42.70;;;;;;6190615;28;20121;-71
2022/06/17 07:05:54;;;;;;;5.53;3.90;;;28.30;42.50;;;;;;6193183;28;20175;-71
2022/06/17 07:08:55;;;;;;;12.47;3.67;;;28.30;42.40;;;;;;6203697;28;20030;-71
2022/06/17 07:11:56;;;;;;;6.18;3.50;;;28.50;42.10;;;;;;6178652;28;20167;-71
2022/06/17 07:14:57;;;;;;;7.03;3.97;;;28.60;41.90;;;;;;6199540;28;20125;-71
2022/06/17 07:18:09;;;;;;;10.15;4.47;;;28.70;41.80;;;;;;6204173;28;20125;-71
2022/06/17 07:21:13;;;;;;;7.03;3.47;;;28.80;41.50;;;;;;6201814;28;20022;-72
2022/06/17 07:24:15;;;;;;;12.20;3.80;;;29.00;41.30;;;;;;6190182;28;20440;-71
2022/06/17 07:27:16;;;;;;;7.20;3.25;;;29.10;41.20;;;;;;6204780;28;20018;-71
2022/06/17 07:30:19;;;;;;;48.13;5.20;;;29.20;41.00;;;;;;6198468;28;20025;-70
2022/06/17 07:33:22;;;;;;;14.35;3.55;;;29.30;40.90;;;;;;6178079;28;20041;-72
2022/06/17 07:39:54;;;;;;;7.78;3.40;;;29.30;40.70;;;;;;6204537;28;20014;-70
2022/06/17 07:43:04;;;;;;;10.05;3.47;;;29.30;40.70;;;;;;6201023;28;20451;-71
2022/06/17 07:46:05;;;;;;;8.93;4.22;;;29.30;40.80;;;;;;6178486;28;20372;-72
2022/06/17 07:49:06;;;;;;;11.55;3.95;;;29.40;40.90;;;;;;6180197;28;20333;-71
2022/06/17 07:52:08;;;;;;;7.75;3.58;;;29.40;40.80;;;;;;6206939;28;20061;-72
2022/06/17 07:55:09;;;;;;;10.07;4.15;;;29.40;40.60;;;;;;6187073;28;20084;-72
2022/06/17 07:58:12;;;;;;;5.95;3.78;;;29.60;40.50;;;;;;6199358;28;20037;-72
2022/06/17 08:01:14;;;;;;;6.93;3.60;;;29.80;40.50;;;;;;6196032;28;20029;-72
2022/06/17 08:04:14;;;;;;;7.97;3.85;;;29.90;40.40;;;;;;6179886;28;20037;-73
2022/06/17 08:07:16;;;;;;;9.30;3.63;;;30.00;40.30;;;;;;6201980;28;20022;-73
2022/06/17 08:10:20;;;;;;;12.70;3.83;;;30.10;40.00;;;;;;6193883;28;20018;-72
2022/06/17 08:13:22;;;;;;;6.93;3.75;;;30.30;39.90;;;;;;6198060;28;20030;-71
2022/06/17 08:16:23;;;;;;;9.80;3.90;;;30.50;39.70;;;;;;6199195;28;20432;-70
2022/06/17 08:19:24;;;;;;;11.43;4.22;;;30.60;39.40;;;;;;6179203;28;20084;-71
2022/06/17 08:22:25;;;;;;;9.05;3.83;;;30.80;39.10;;;;;;6179956;28;20176;-71
2022/06/17 08:25:26;;;;;;;9.98;3.67;;;30.90;38.90;;;;;;6189555;28;20026;-70
2022/06/17 08:28:29;;;;;;;12.45;4.10;;;31.00;38.70;;;;;;6182516;28;20085;-72
2022/06/17 08:31:29;;;;;;;5.43;3.85;;;31.10;38.40;;;;;;6201046;28;20014;-73
2022/06/17 08:34:31;;;;;;;10.32;4.95;;;31.20;38.30;;;;;;6183316;28;20026;-71
2022/06/17 08:37:33;;;;;;;6.97;4.20;;;31.30;38.30;;;;;;6205163;28;20107;-70
2022/06/17 08:40:55;;;;;;;7.18;4.25;;;31.40;38.20;;;;;;6192740;28;20493;-71
2022/06/17 08:44:33;;;;;;;13.60;4.82;;;31.40;38.10;;;;;;6196861;28;20026;-72
2022/06/17 08:48:03;;;;;;;7.43;3.95;;;31.40;38.00;;;;;;6182998;28;20109;-72
2022/06/17 08:51:13;;;;;;;5.18;3.70;;;31.40;38.00;;;;;;6187737;28;20030;-71
2022/06/17 08:54:42;;;;;;;8.77;4.85;;;31.40;38.00;;;;;;6181695;28;20089;-72
2022/06/17 08:58:00;;;;;;;7.70;4.57;;;31.50;38.00;;;;;;6194093;28;20088;-72
2022/06/17 09:01:30;;;;;;;8.60;3.92;;;31.60;37.90;;;;;;6195353;28;20022;-71
2022/06/17 09:04:47;;;;;;;13.60;3.97;;;31.80;37.70;;;;;;6198527;28;20041;-71
2022/06/17 09:08:06;;;;;;;6.72;3.72;;;31.90;37.40;;;;;;6198831;28;20018;-71
2022/06/17 09:11:06;;;;;;;;;;;32.00;37.20;;;;;;6186461;28;20018;-71
2022/06/17 09:14:31;;;;;;;11.68;4.40;;;32.20;36.80;;;;;;6186543;28;19918;-73
2022/06/17 09:17:35;;;;;;;11.70;3.85;;;32.30;36.20;;;;;;6203372;28;20419;-71
2022/06/17 09:20:39;;;;;;;8.65;4.18;;;32.40;36.00;;;;;;6179002;28;20037;-71
2022/06/17 09:23:41;;;;;;;10.50;5.45;;;32.50;35.90;;;;;;6182885;28;20030;-72
2022/06/17 09:26:48;;;;;;;7.90;4.03;;;32.50;35.80;;;;;;6187105;28;20025;-70
2022/06/17 09:29:53;;;;;;;5.40;3.28;;;32.70;35.80;;;;;;6186731;28;20161;-72
2022/06/17 09:33:13;;;;;;;7.72;4.13;;;32.70;35.60;;;;;;6190265;28;20019;-71
2022/06/17 09:36:36;;;;;;;6.47;4.13;;;32.80;35.60;;;;;;6199706;28;20451;-71
2022/06/17 09:39:46;;;;;;;9.10;4.20;;;32.80;35.40;;;;;;6187927;28;20040;-72
2022/06/17 09:42:56;;;;;;;11.82;3.72;;;32.90;35.40;;;;;;6189914;28;20025;-70
2022/06/17 09:46:14;;;;;;;6.13;3.72;;;33.00;35.20;;;;;;6194460;28;20022;-72
2022/06/17 09:49:37;;;;;;;7.30;3.90;;;33.00;34.90;;;;;;6203712;28;20113;-70
2022/06/17 09:52:43;;;;;;;15.55;4.00;;;33.10;34.80;;;;;;6202356;28;20025;-70
2022/06/17 09:55:50;;;;;;;8.43;3.95;;;33.20;34.70;;;;;;6200826;28;20030;-71
2022/06/17 09:59:12;;;;;;;7.45;4.10;;;33.20;34.70;;;;;;6204687;28;20435;-72
2022/06/17 10:02:13;;;;;;;8.48;4.30;;;33.20;34.80;;;;;;6182412;28;20033;-72
2022/06/17 10:05:34;;;;;;;8.73;4.32;;;33.30;34.90;;;;;;6182841;28;20026;-72
2022/06/17 10:08:39;;;;;;;9.05;4.50;;;33.30;34.90;;;;;;6209442;28;20026;-71
2022/06/17 10:11:54;;;;;;;12.70;4.10;;;33.40;34.90;;;;;;6184515;28;20014;-69
2022/06/17 10:15:29;;;;;;;10.98;4.07;;;33.50;34.90;;;;;;6176644;28;20046;-70
2022/06/17 10:18:39;;;;;;;5.70;3.50;;;33.50;35.00;;;;;;6207880;28;20026;-72
2022/06/17 10:22:21;;;;;;;7.97;4.38;;;33.50;34.60;;;;;;6204941;28;20058;-71
2022/06/17 10:25:50;;;;;;;7.65;3.40;;;33.60;34.20;;;;;;6178545;28;20026;-71
2022/06/17 10:29:10;;;;;;;;;;;33.60;33.40;;;;;;6176307;28;20037;-70
2022/06/17 10:32:11;;;;;;;;;;;33.60;33.30;;;;;;6188497;28;19957;-71
2022/06/17 10:35:26;;;;;;;6.68;3.08;;;33.70;33.00;;;;;;6179704;28;19906;-72
2022/06/17 10:38:36;;;;;;;3.53;2.78;;;33.80;32.80;;;;;;6178054;28;20030;-72
2022/06/17 10:41:38;;;;;;;13.45;3.15;;;33.90;32.60;;;;;;6204321;28;20022;-72
2022/06/17 10:44:39;;;;;;;7.07;3.60;;;34.00;32.30;;;;;;6203857;28;20105;-71
2022/06/17 10:47:42;;;;;;;5.22;2.83;;;34.10;32.10;;;;;;6202237;28;20485;-71
2022/06/17 10:50:43;;;;;;;8.85;3.13;;;34.30;31.90;;;;;;6199741;28;20023;-72
2022/06/17 10:54:02;;;;;;;6.93;3.63;;;34.40;31.50;;;;;;6184418;28;20022;-71
2022/06/17 10:57:07;;;;;;;10.95;4.60;;;34.50;31.40;;;;;;6204429;28;20017;-71
2022/06/17 11:00:26;;;;;;;10.85;4.97;;;34.70;31.30;;;;;;6198104;28;20019;-71
2022/06/17 11:03:33;;;;;;;13.02;4.57;;;34.90;31.20;;;;;;6198681;28;20030;-71
2022/06/17 11:06:42;;;;;;;66.18;19.92;;;35.10;30.90;;;;;;6199766;28;20042;-71
2022/06/17 11:09:51;;;;;;;15.90;4.82;;;35.70;30.20;;;;;;6200796;28;20093;-71
2022/06/17 11:13:05;;;;;;;15.23;5.68;;;36.60;29.40;;;;;;6165660;28;20173;-72
2022/06/17 11:16:06;;;;;;;18.20;5.93;;;37.10;28.70;;;;;;6178073;28;20061;-71
2022/06/17 11:19:15;;;;;;;10.93;4.85;;;37.60;28.30;;;;;;6179621;28;20022;-72
2022/06/17 11:22:38;;;;;;;12.18;3.70;;;38.00;27.70;;;;;;6180182;28;20038;-72
2022/06/17 11:25:41;;;;;;;11.75;4.03;;;38.60;27.30;;;;;;6191471;28;20086;-73
2022/06/17 11:28:48;;;;;;;11.18;4.07;;;39.30;26.90;;;;;;6201676;28;20098;-71
2022/06/17 11:31:49;;;;;;;;;;;39.80;26.40;;;;;;6183093;28;20474;-71
2022/06/17 11:35:15;;;;;;;21.05;5.30;;;40.10;26.10;;;;;;6197122;28;19913;-72
2022/06/17 11:38:16;;;;;;;14.13;5.32;;;40.30;25.80;;;;;;6177550;28;20036;-72
2022/06/17 11:41:31;;;;;;;17.13;6.22;;;40.50;25.60;;;;;;6195501;28;20052;-72
2022/06/17 11:44:33;;;;;;;18.70;5.15;;;40.70;25.30;;;;;;6197400;28;20026;-71
2022/06/17 11:47:35;;;;;;;13.43;4.82;;;40.90;25.10;;;;;;6186766;28;20018;-72
2022/06/17 11:50:42;;;;;;;7.40;3.03;;;40.90;24.90;;;;;;6157356;28;20108;-72
2022/06/17 11:53:54;;;;;;;8.15;3.20;;;41.00;24.80;;;;;;6193823;28;20023;-72
2022/06/17 11:56:55;;;;;;;8.20;2.70;;;41.10;24.80;;;;;;6182497;28;20038;-71
2022/06/17 12:00:00;;;;;;;5.15;2.78;;;41.10;24.80;;;;;;6196451;28;20125;-72
2022/06/17 12:03:02;;;;;;;26.55;6.15;;;41.00;24.70;;;;;;6178204;28;20034;-72
2022/06/17 12:06:06;;;;;;;10.38;3.38;;;41.20;24.60;;;;;;6182154;28;20019;-72
2022/06/17 12:09:34;;;;;;;11.07;3.58;;;41.10;24.50;;;;;;6194124;28;20032;-72
2022/06/17 12:12:35;;;;;;;13.32;3.65;;;41.20;24.40;;;;;;6176477;28;20038;-72
2022/06/17 12:15:44;;;;;;;10.73;3.13;;;41.50;24.20;;;;;;6182659;28;20201;-71
2022/06/17 12:18:54;;;;;;;17.52;4.88;;;41.90;24.40;;;;;;6180984;28;20421;-72
2022/06/17 12:21:54;;;;;;;15.02;3.67;;;41.90;23.70;;;;;;6180441;28;20036;-71
2022/06/17 12:25:17;;;;;;;6.85;2.53;;;42.30;23.70;;;;;;6176882;28;20362;-72
2022/06/17 12:28:33;;;;;;;6.13;3.25;;;42.60;23.20;;;;;;6193313;28;20404;-72
2022/06/17 12:31:58;;;;;;;11.05;4.47;;;42.70;22.80;;;;;;6184014;28;20034;-71
2022/06/17 12:35:05;;;;;;;2.78;2.20;;;42.70;22.70;;;;;;6192098;28;20041;-73
2022/06/17 12:38:08;;;;;;;10.07;3.22;;;42.60;22.40;;;;;;6194980;28;20041;-72
2022/06/17 12:41:15;;;;;;;19.17;5.45;;;42.70;22.40;;;;;;6179526;28;20495;-71
2022/06/17 12:44:21;;;;;;;6.75;2.45;;;42.90;22.20;;;;;;6166372;28;20055;-72
2022/06/17 12:47:32;;;;;;;11.57;2.92;;;42.80;22.10;;;;;;6164741;28;20432;-71
2022/06/17 12:54:06;;;;;;;7.07;2.72;;;42.90;21.80;;;;;;6198214;28;20108;-73
2022/06/17 12:57:37;;;;;;;7.95;3.70;;;43.10;21.60;;;;;;6196347;28;20395;-72
2022/06/17 13:00:51;;;;;;;9.82;2.75;;;43.50;21.40;;;;;;6181933;28;20037;-71
2022/06/17 13:04:10;;;;;;;15.45;5.53;;;43.70;20.90;;;;;;6178714;28;20117;-73
2022/06/17 13:07:29;;;;;;;16.27;3.78;;;43.80;20.70;;;;;;6175903;28;20045;-71
2022/06/17 13:10:48;;;;;;;12.48;3.28;;;44.10;20.50;;;;;;6197298;28;20023;-72
2022/06/17 13:13:57;;;;;;;8.95;2.75;;;44.50;20.20;;;;;;6200641;28;20027;-71
2022/06/17 13:17:35;;;;;;;7.80;3.08;;;45.10;19.80;;;;;;6193630;28;20347;-71
2022/06/17 13:20:53;;;;;;;10.35;4.00;;;45.80;19.40;;;;;;6189167;28;20088;-72
2022/06/17 13:24:22;;;;;;;10.75;2.97;;;46.30;18.90;;;;;;6203348;28;20132;-73
2022/06/17 13:27:54;;;;;;;6.28;3.10;;;46.60;18.40;;;;;;6177323;28;20030;-72
2022/06/17 13:31:00;;;;;;;10.82;3.47;;;47.00;18.30;;;;;;6173000;28;20454;-72
2022/06/17 13:34:21;;;;;;;13.90;3.20;;;47.30;18.00;;;;;;6203464;28;20103;-72
2022/06/17 13:37:32;;;;;;;7.15;3.63;;;47.40;17.80;;;;;;6177901;28;20439;-73
2022/06/17 13:40:47;;;;;;;9.32;3.53;;;47.70;17.60;;;;;;6180163;28;20105;-73
2022/06/17 13:44:10;;;;;;;7.93;3.25;;;48.00;17.40;;;;;;6177997;28;20053;-72
2022/06/17 13:47:34;;;;;;;6.53;2.72;;;48.20;17.10;;;;;;6180237;28;20595;-72
2022/06/17 13:50:44;;;;;;;7.43;2.97;;;48.50;17.00;;;;;;6180612;28;20026;-72
2022/06/17 13:54:18;;;;;;;6.70;2.03;;;48.70;16.70;;;;;;6198944;28;20026;-72
2022/06/17 13:57:47;;;;;;;7.25;3.00;;;49.10;16.70;;;;;;6183501;28;20053;-72
2022/06/17 14:00:53;;;;;;;4.00;1.92;;;49.40;16.30;;;;;;6198884;28;20023;-73
2022/06/17 14:03:54;;;;;;;6.28;1.88;;;49.70;15.90;;;;;;6206274;28;20083;-72
2022/06/17 14:06:58;;;;;;;10.32;2.40;;;49.70;16.30;;;;;;6181833;28;20034;-72
2022/06/17 14:10:31;;;;;;;7.20;3.13;;;49.00;15.90;;;;;;6187036;28;20026;-72
2022/06/17 14:13:35;;;;;;;5.78;2.70;;;48.40;16.10;;;;;;6178762;28;20093;-73
2022/06/17 14:16:37;;;;;;;3.53;1.98;;;48.20;16.10;;;;;;6184355;28;20037;-72
2022/06/17 14:19:50;;;;;;;2.83;2.00;;;47.90;16.00;;;;;;6183110;28;20029;-72
2022/06/17 14:23:21;;;;;;;8.13;2.65;;;47.80;16.00;;;;;;6189859;28;20113;-72
2022/06/17 14:26:51;;;;;;;3.38;1.77;;;47.50;16.00;;;;;;6096005;29;20115;-72
2022/06/17 14:30:11;;;;;;;7.00;3.33;;;47.20;16.00;;;;;;6117419;29;20401;-72
2022/06/17 14:33:19;;;;;;;7.63;2.47;;;47.30;16.00;;;;;;6113004;29;20319;-72
2022/06/17 14:36:47;;;;;;;10.15;4.20;;;47.50;15.90;;;;;;6112324;29;20111;-72
2022/06/17 14:39:53;;;;;;;6.40;2.00;;;47.90;15.80;;;;;;6113294;29;20505;-71
2022/06/17 14:43:17;;;;;;;10.43;3.63;;;48.10;15.50;;;;;;6109280;29;20170;-72
2022/06/17 14:46:18;;;;;;;10.00;2.97;;;48.10;15.50;;;;;;6099334;29;20423;-72
2022/06/17 14:49:45;;;;;;;2.58;1.85;;;48.00;15.60;;;;;;6097123;29;20032;-72
2022/06/17 14:52:56;;;;;;;9.95;2.55;;;48.10;15.50;;;;;;6112653;29;20442;-72
2022/06/17 14:56:14;;;;;;;4.82;2.47;;;48.20;15.40;;;;;;6114770;29;20036;-72
2022/06/17 14:59:26;;;;;;;11.02;2.05;;;48.30;15.20;;;;;;6110879;29;20168;-73
2022/06/17 15:02:39;;;;;;;5.22;2.28;;;48.60;15.10;;;;;;6141364;28;20034;-72
2022/06/17 15:05:40;;;;;;;4.90;2.42;;;48.80;15.50;;;;;;6200322;28;20026;-72
2022/06/17 15:08:45;;;;;;;4.53;2.90;;;49.00;14.80;;;;;;6201887;28;20026;-72
2022/06/17 15:12:03;;;;;;;9.70;4.13;;;49.00;14.70;;;;;;6173900;28;20026;-72
2022/06/17 15:15:13;;;;;;;8.05;2.13;;;48.80;14.70;;;;;;6195764;28;20475;-72
2022/06/17 15:18:19;;;;;;;8.02;3.08;;;48.90;14.70;;;;;;6196973;28;20021;-72
2022/06/17 15:21:23;;;;;;;5.22;2.75;;;48.90;14.60;;;;;;6202503;28;20018;-72
2022/06/17 15:24:47;;;;;;;10.30;2.47;;;48.90;14.60;;;;;;6191425;28;20085;-72
2022/06/17 15:28:02;;;;;;;15.90;3.25;;;48.90;14.60;;;;;;6201644;28;20022;-72
2022/06/17 15:31:24;;;;;;;5.22;2.42;;;48.90;14.50;;;;;;6196816;28;20044;-73
2022/06/17 15:34:31;;;;;;;4.38;1.70;;;48.70;14.60;;;;;;6191599;28;20082;-72
2022/06/17 15:37:36;;;;;;;2.80;1.88;;;48.70;14.60;;;;;;6202707;28;20014;-72
2022/06/17 15:40:37;;;;;;;3.90;2.35;;;48.70;14.50;;;;;;6180213;28;20026;-73
2022/06/17 15:44:08;;;;;;;5.53;2.20;;;48.60;14.40;;;;;;6181627;28;20105;-72
2022/06/17 15:47:12;;;;;;;2.70;1.83;;;48.50;14.40;;;;;;6175930;28;20030;-73
2022/06/17 15:50:12;;;;;;;3.13;1.50;;;48.50;14.40;;;;;;6186346;28;20022;-72
2022/06/17 15:53:26;;;;;;;7.95;2.88;;;48.40;14.20;;;;;;6196802;28;20022;-73
2022/06/17 15:56:40;;;;;;;9.05;2.20;;;48.30;14.40;;;;;;6176287;28;20026;-72
2022/06/17 15:59:47;;;;;;;7.43;2.17;;;48.00;14.50;;;;;;6182597;28;20054;-72
2022/06/17 16:02:52;;;;;;;10.20;3.38;;;47.70;14.70;;;;;;6194140;28;20047;-71
2022/06/17 16:06:01;;;;;;;6.95;2.00;;;47.10;15.00;;;;;;6202096;28;20030;-72
2022/06/17 16:09:31;;;;;;;8.02;2.08;;;46.70;15.20;;;;;;6180787;28;20058;-72
2022/06/17 16:12:40;;;;;;;2.58;1.70;;;46.30;15.30;;;;;;6175910;28;20022;-72
2022/06/17 16:15:44;;;;;;;6.75;3.30;;;45.90;15.60;;;;;;6160578;28;20445;-71
2022/06/17 16:18:49;;;;;;;10.25;3.55;;;45.70;15.90;;;;;;6187128;28;20030;-72
2022/06/17 16:22:00;;;;;;;6.10;2.22;;;45.50;16.50;;;;;;6198614;28;20057;-71
2022/06/17 16:25:08;;;;;;;4.63;2.05;;;45.20;16.20;;;;;;6199884;28;20042;-72
2022/06/17 16:28:16;;;;;;;5.60;1.98;;;45.10;16.40;;;;;;6180845;28;20019;-72
2022/06/17 16:31:24;;;;;;;8.30;2.22;;;45.10;16.40;;;;;;6178440;28;20503;-72
2022/06/17 16:34:25;;;;;;;4.47;2.10;;;45.00;16.50;;;;;;6189561;28;20353;-71
2022/06/17 16:37:39;;;;;;;5.75;2.40;;;44.80;16.60;;;;;;6188442;28;20077;-73